sensor_id;sensor_type;location;lat;lon;timestamp;P1;durP1;ratioP1;P2;durP2;ratioP2
12445;SDS011;6287;50.984;7.022;2023-02-16T00:01:56;16.80;;;9.03;;
12445;SDS011;6287;50.984;7.022;2023-02-16T00:04:29;17.10;;;8.77;;
12445;SDS011;6287;50.984;7.022;2023-02-16T00:06:56;17.23;;;8.60;;
12445;SDS011;6287;50.984;7.022;2023-02-16T00:09:24;19.80;;;8.90;;
12445;SDS011;6287;50.984;7.022;2023-02-16T00:11:51;14.17;;;8.33;;
12445;SDS011;6287;50.984;7.022;2023-02-16T00:14:36;18.80;;;9.97;;
12445;SDS011;6287;50.984;7.022;2023-02-16T00:17:03;16.60;;;8.80;;
12445;SDS011;6287;50.984;7.022;2023-02-16T00:19:33;12.90;;;8.03;;
12445;SDS011;6287;50.984;7.022;2023-02-16T00:22:03;15.50;;;8.60;;
12445;SDS011;6287;50.984;7.022;2023-02-16T00:24:32;16.40;;;9.33;;
12445;SDS011;6287;50.984;7.022;2023-02-16T00:26:59;16.07;;;8.90;;
12445;SDS011;6287;50.984;7.022;2023-02-16T00:29:33;17.13;;;8.80;;
12445;SDS011;6287;50.984;7.022;2023-02-16T00:32:02;17.13;;;9.13;;
12445;SDS011;6287;50.984;7.022;2023-02-16T00:34:36;15.53;;;8.10;;
12445;SDS011;6287;50.984;7.022;2023-02-16T00:37:05;13.20;;;7.77;;
12445;SDS011;6287;50.984;7.022;2023-02-16T00:39:35;17.53;;;8.87;;
12445;SDS011;6287;50.984;7.022;2023-02-16T00:42:02;18.80;;;9.27;;
12445;SDS011;6287;50.984;7.022;2023-02-16T00:44:31;17.97;;;9.43;;
12445;SDS011;6287;50.984;7.022;2023-02-16T00:49:44;15.10;;;8.20;;
12445;SDS011;6287;50.984;7.022;2023-02-16T00:52:55;17.40;;;9.17;;
12445;SDS011;6287;50.984;7.022;2023-02-16T00:54:59;15.53;;;8.43;;
12445;SDS011;6287;50.984;7.022;2023-02-16T00:57:33;16.73;;;8.33;;
12445;SDS011;6287;50.984;7.022;2023-02-16T01:02:35;17.80;;;8.67;;
12445;SDS011;6287;50.984;7.022;2023-02-16T01:05:00;18.47;;;9.07;;
12445;SDS011;6287;50.984;7.022;2023-02-16T01:07:26;16.53;;;8.43;;
12445;SDS011;6287;50.984;7.022;2023-02-16T01:10:13;17.43;;;8.30;;
12445;SDS011;6287;50.984;7.022;2023-02-16T01:12:59;17.67;;;8.20;;
12445;SDS011;6287;50.984;7.022;2023-02-16T01:15:27;16.60;;;9.03;;
12445;SDS011;6287;50.984;7.022;2023-02-16T01:17:57;16.50;;;8.90;;
12445;SDS011;6287;50.984;7.022;2023-02-16T01:20:26;15.13;;;8.70;;
12445;SDS011;6287;50.984;7.022;2023-02-16T01:22:53;16.10;;;8.97;;
12445;SDS011;6287;50.984;7.022;2023-02-16T01:25:20;16.97;;;9.00;;
12445;SDS011;6287;50.984;7.022;2023-02-16T01:27:47;16.67;;;8.93;;
12445;SDS011;6287;50.984;7.022;2023-02-16T01:30:21;15.77;;;8.93;;
12445;SDS011;6287;50.984;7.022;2023-02-16T01:32:49;14.27;;;8.27;;
12445;SDS011;6287;50.984;7.022;2023-02-16T01:35:21;14.77;;;7.87;;
12445;SDS011;6287;50.984;7.022;2023-02-16T01:37:57;13.97;;;8.10;;
12445;SDS011;6287;50.984;7.022;2023-02-16T01:42:57;12.20;;;7.57;;
12445;SDS011;6287;50.984;7.022;2023-02-16T01:45:50;17.37;;;8.13;;
12445;SDS011;6287;50.984;7.022;2023-02-16T01:48:23;14.63;;;8.17;;
12445;SDS011;6287;50.984;7.022;2023-02-16T01:53:32;14.87;;;8.13;;
12445;SDS011;6287;50.984;7.022;2023-02-16T01:59:02;18.90;;;8.97;;
12445;SDS011;6287;50.984;7.022;2023-02-16T02:04:15;15.30;;;8.70;;
12445;SDS011;6287;50.984;7.022;2023-02-16T02:07:05;11.90;;;7.53;;
12445;SDS011;6287;50.984;7.022;2023-02-16T02:09:34;15.77;;;8.20;;
12445;SDS011;6287;50.984;7.022;2023-02-16T02:12:22;14.97;;;7.77;;
12445;SDS011;6287;50.984;7.022;2023-02-16T02:14:57;17.60;;;8.57;;
12445;SDS011;6287;50.984;7.022;2023-02-16T02:17:23;13.43;;;8.13;;
12445;SDS011;6287;50.984;7.022;2023-02-16T02:20:03;15.57;;;8.33;;
12445;SDS011;6287;50.984;7.022;2023-02-16T02:22:56;17.03;;;8.70;;
12445;SDS011;6287;50.984;7.022;2023-02-16T02:28:33;17.80;;;8.43;;
12445;SDS011;6287;50.984;7.022;2023-02-16T02:31:13;16.20;;;9.33;;
12445;SDS011;6287;50.984;7.022;2023-02-16T02:36:27;15.03;;;9.00;;
12445;SDS011;6287;50.984;7.022;2023-02-16T02:41:46;14.03;;;8.07;;
12445;SDS011;6287;50.984;7.022;2023-02-16T02:44:32;15.60;;;8.50;;
12445;SDS011;6287;50.984;7.022;2023-02-16T02:47:16;15.07;;;8.17;;
12445;SDS011;6287;50.984;7.022;2023-02-16T02:49:50;16.63;;;8.70;;
12445;SDS011;6287;50.984;7.022;2023-02-16T02:52:20;16.77;;;8.10;;
12445;SDS011;6287;50.984;7.022;2023-02-16T02:54:49;17.90;;;8.23;;
12445;SDS011;6287;50.984;7.022;2023-02-16T02:57:38;16.70;;;8.63;;
12445;SDS011;6287;50.984;7.022;2023-02-16T03:06:18;15.27;;;8.63;;
12445;SDS011;6287;50.984;7.022;2023-02-16T03:08:47;17.23;;;8.73;;
12445;SDS011;6287;50.984;7.022;2023-02-16T03:11:23;15.40;;;8.00;;
12445;SDS011;6287;50.984;7.022;2023-02-16T03:14:14;16.47;;;8.23;;
12445;SDS011;6287;50.984;7.022;2023-02-16T03:16:53;15.40;;;8.33;;
12445;SDS011;6287;50.984;7.022;2023-02-16T03:19:40;16.47;;;8.23;;
12445;SDS011;6287;50.984;7.022;2023-02-16T03:22:31;19.43;;;8.53;;
12445;SDS011;6287;50.984;7.022;2023-02-16T03:25:19;15.63;;;8.07;;
12445;SDS011;6287;50.984;7.022;2023-02-16T03:28:06;15.50;;;8.20;;
12445;SDS011;6287;50.984;7.022;2023-02-16T03:30:52;17.43;;;8.10;;
12445;SDS011;6287;50.984;7.022;2023-02-16T03:33:19;16.83;;;8.77;;
12445;SDS011;6287;50.984;7.022;2023-02-16T03:35:48;17.80;;;8.97;;
12445;SDS011;6287;50.984;7.022;2023-02-16T03:38:17;18.90;;;8.90;;
12445;SDS011;6287;50.984;7.022;2023-02-16T03:40:46;16.47;;;8.50;;
12445;SDS011;6287;50.984;7.022;2023-02-16T03:43:14;14.80;;;8.50;;
12445;SDS011;6287;50.984;7.022;2023-02-16T03:45:42;15.00;;;8.43;;
12445;SDS011;6287;50.984;7.022;2023-02-16T03:48:08;19.67;;;8.97;;
12445;SDS011;6287;50.984;7.022;2023-02-16T03:50:34;18.33;;;9.00;;
12445;SDS011;6287;50.984;7.022;2023-02-16T03:53:00;18.27;;;8.40;;
12445;SDS011;6287;50.984;7.022;2023-02-16T03:58:03;16.63;;;9.93;;
12445;SDS011;6287;50.984;7.022;2023-02-16T04:00:32;16.77;;;9.90;;
12445;SDS011;6287;50.984;7.022;2023-02-16T04:03:05;20.43;;;9.50;;
12445;SDS011;6287;50.984;7.022;2023-02-16T04:05:33;18.80;;;9.47;;
12445;SDS011;6287;50.984;7.022;2023-02-16T04:08:01;17.23;;;9.53;;
12445;SDS011;6287;50.984;7.022;2023-02-16T04:10:30;16.13;;;9.60;;
12445;SDS011;6287;50.984;7.022;2023-02-16T04:12:58;18.87;;;9.30;;
12445;SDS011;6287;50.984;7.022;2023-02-16T04:15:25;18.50;;;10.07;;
12445;SDS011;6287;50.984;7.022;2023-02-16T04:17:54;16.77;;;8.80;;
12445;SDS011;6287;50.984;7.022;2023-02-16T04:20:22;17.13;;;8.87;;
12445;SDS011;6287;50.984;7.022;2023-02-16T04:22:49;19.93;;;8.90;;
12445;SDS011;6287;50.984;7.022;2023-02-16T04:25:16;19.20;;;9.17;;
12445;SDS011;6287;50.984;7.022;2023-02-16T04:27:46;19.37;;;8.97;;
12445;SDS011;6287;50.984;7.022;2023-02-16T04:30:16;17.60;;;9.10;;
12445;SDS011;6287;50.984;7.022;2023-02-16T04:32:50;17.57;;;8.43;;
12445;SDS011;6287;50.984;7.022;2023-02-16T04:35:16;19.60;;;9.33;;
12445;SDS011;6287;50.984;7.022;2023-02-16T04:37:45;20.27;;;8.87;;
12445;SDS011;6287;50.984;7.022;2023-02-16T04:40:14;18.53;;;10.60;;
12445;SDS011;6287;50.984;7.022;2023-02-16T04:42:43;16.50;;;10.17;;
12445;SDS011;6287;50.984;7.022;2023-02-16T04:45:09;25.47;;;9.77;;
12445;SDS011;6287;50.984;7.022;2023-02-16T04:47:38;18.67;;;9.90;;
12445;SDS011;6287;50.984;7.022;2023-02-16T04:50:06;19.67;;;9.23;;
12445;SDS011;6287;50.984;7.022;2023-02-16T04:52:34;22.73;;;11.27;;
12445;SDS011;6287;50.984;7.022;2023-02-16T04:55:07;19.20;;;9.07;;
12445;SDS011;6287;50.984;7.022;2023-02-16T04:57:36;20.53;;;10.40;;
12445;SDS011;6287;50.984;7.022;2023-02-16T05:00:03;20.27;;;10.03;;
12445;SDS011;6287;50.984;7.022;2023-02-16T05:02:31;18.77;;;9.87;;
12445;SDS011;6287;50.984;7.022;2023-02-16T05:04:56;19.30;;;9.37;;
12445;SDS011;6287;50.984;7.022;2023-02-16T05:07:22;17.50;;;9.30;;
12445;SDS011;6287;50.984;7.022;2023-02-16T05:09:50;21.53;;;9.90;;
12445;SDS011;6287;50.984;7.022;2023-02-16T05:12:18;24.00;;;11.67;;
12445;SDS011;6287;50.984;7.022;2023-02-16T05:15:03;23.83;;;10.40;;
12445;SDS011;6287;50.984;7.022;2023-02-16T05:17:29;19.83;;;10.50;;
12445;SDS011;6287;50.984;7.022;2023-02-16T05:19:58;18.13;;;8.83;;
12445;SDS011;6287;50.984;7.022;2023-02-16T05:22:24;22.00;;;10.00;;
12445;SDS011;6287;50.984;7.022;2023-02-16T05:24:54;18.37;;;9.40;;
12445;SDS011;6287;50.984;7.022;2023-02-16T05:27:21;20.73;;;9.77;;
12445;SDS011;6287;50.984;7.022;2023-02-16T05:29:48;21.43;;;10.47;;
12445;SDS011;6287;50.984;7.022;2023-02-16T05:32:16;18.60;;;10.50;;
12445;SDS011;6287;50.984;7.022;2023-02-16T05:34:44;25.07;;;9.43;;
12445;SDS011;6287;50.984;7.022;2023-02-16T05:37:13;22.97;;;10.40;;
12445;SDS011;6287;50.984;7.022;2023-02-16T05:39:42;19.30;;;9.57;;
12445;SDS011;6287;50.984;7.022;2023-02-16T05:42:11;19.27;;;8.00;;
12445;SDS011;6287;50.984;7.022;2023-02-16T05:44:37;20.10;;;9.17;;
12445;SDS011;6287;50.984;7.022;2023-02-16T05:47:05;17.97;;;9.43;;
12445;SDS011;6287;50.984;7.022;2023-02-16T05:49:33;21.07;;;9.60;;
12445;SDS011;6287;50.984;7.022;2023-02-16T05:52:03;20.67;;;9.37;;
12445;SDS011;6287;50.984;7.022;2023-02-16T05:54:29;18.20;;;9.30;;
12445;SDS011;6287;50.984;7.022;2023-02-16T05:56:59;19.50;;;8.93;;
12445;SDS011;6287;50.984;7.022;2023-02-16T05:59:30;20.10;;;9.50;;
12445;SDS011;6287;50.984;7.022;2023-02-16T06:01:55;16.90;;;8.10;;
12445;SDS011;6287;50.984;7.022;2023-02-16T06:04:23;20.33;;;9.57;;
12445;SDS011;6287;50.984;7.022;2023-02-16T06:06:48;19.77;;;10.83;;
12445;SDS011;6287;50.984;7.022;2023-02-16T06:09:17;18.20;;;9.97;;
12445;SDS011;6287;50.984;7.022;2023-02-16T06:11:42;19.30;;;10.10;;
12445;SDS011;6287;50.984;7.022;2023-02-16T06:14:09;19.70;;;9.57;;
12445;SDS011;6287;50.984;7.022;2023-02-16T06:16:44;23.63;;;10.30;;
12445;SDS011;6287;50.984;7.022;2023-02-16T06:19:16;22.63;;;10.00;;
12445;SDS011;6287;50.984;7.022;2023-02-16T06:21:45;19.10;;;9.53;;
12445;SDS011;6287;50.984;7.022;2023-02-16T06:24:13;19.60;;;9.33;;
12445;SDS011;6287;50.984;7.022;2023-02-16T06:26:41;17.47;;;9.70;;
12445;SDS011;6287;50.984;7.022;2023-02-16T06:29:07;18.70;;;10.53;;
12445;SDS011;6287;50.984;7.022;2023-02-16T06:31:35;19.37;;;9.40;;
12445;SDS011;6287;50.984;7.022;2023-02-16T06:34:01;19.73;;;9.90;;
12445;SDS011;6287;50.984;7.022;2023-02-16T06:36:30;22.57;;;10.20;;
12445;SDS011;6287;50.984;7.022;2023-02-16T06:38:58;22.43;;;10.67;;
12445;SDS011;6287;50.984;7.022;2023-02-16T06:41:29;19.80;;;10.17;;
12445;SDS011;6287;50.984;7.022;2023-02-16T06:44:00;20.77;;;9.50;;
12445;SDS011;6287;50.984;7.022;2023-02-16T06:46:27;17.90;;;9.53;;
12445;SDS011;6287;50.984;7.022;2023-02-16T06:48:56;20.83;;;10.43;;
12445;SDS011;6287;50.984;7.022;2023-02-16T06:51:21;20.73;;;10.03;;
12445;SDS011;6287;50.984;7.022;2023-02-16T06:53:47;23.83;;;10.70;;
12445;SDS011;6287;50.984;7.022;2023-02-16T06:56:17;17.77;;;9.70;;
12445;SDS011;6287;50.984;7.022;2023-02-16T06:58:43;19.47;;;9.83;;
12445;SDS011;6287;50.984;7.022;2023-02-16T07:01:13;17.90;;;9.87;;
12445;SDS011;6287;50.984;7.022;2023-02-16T07:03:40;26.00;;;11.63;;
12445;SDS011;6287;50.984;7.022;2023-02-16T07:06:06;31.87;;;14.50;;
12445;SDS011;6287;50.984;7.022;2023-02-16T07:08:32;36.03;;;15.60;;
12445;SDS011;6287;50.984;7.022;2023-02-16T07:10:58;27.00;;;12.57;;
12445;SDS011;6287;50.984;7.022;2023-02-16T07:13:23;22.93;;;11.53;;
12445;SDS011;6287;50.984;7.022;2023-02-16T07:15:51;27.17;;;12.73;;
12445;SDS011;6287;50.984;7.022;2023-02-16T07:18:17;21.57;;;10.13;;
12445;SDS011;6287;50.984;7.022;2023-02-16T07:20:45;21.27;;;10.40;;
12445;SDS011;6287;50.984;7.022;2023-02-16T07:23:11;16.97;;;9.97;;
12445;SDS011;6287;50.984;7.022;2023-02-16T07:25:37;20.33;;;10.20;;
12445;SDS011;6287;50.984;7.022;2023-02-16T07:28:05;19.83;;;11.00;;
12445;SDS011;6287;50.984;7.022;2023-02-16T07:30:34;19.53;;;10.70;;
12445;SDS011;6287;50.984;7.022;2023-02-16T07:33:00;24.77;;;10.47;;
12445;SDS011;6287;50.984;7.022;2023-02-16T07:35:27;21.67;;;9.90;;
12445;SDS011;6287;50.984;7.022;2023-02-16T07:37:53;22.20;;;11.30;;
12445;SDS011;6287;50.984;7.022;2023-02-16T07:40:21;18.20;;;9.83;;
12445;SDS011;6287;50.984;7.022;2023-02-16T07:42:49;24.53;;;10.70;;
12445;SDS011;6287;50.984;7.022;2023-02-16T07:45:17;20.10;;;9.93;;
12445;SDS011;6287;50.984;7.022;2023-02-16T07:47:43;20.70;;;10.47;;
12445;SDS011;6287;50.984;7.022;2023-02-16T07:50:11;18.27;;;9.97;;
12445;SDS011;6287;50.984;7.022;2023-02-16T07:52:39;19.10;;;9.90;;
12445;SDS011;6287;50.984;7.022;2023-02-16T07:55:04;23.70;;;10.57;;
12445;SDS011;6287;50.984;7.022;2023-02-16T07:57:32;20.27;;;11.03;;
12445;SDS011;6287;50.984;7.022;2023-02-16T08:00:05;19.33;;;10.80;;
12445;SDS011;6287;50.984;7.022;2023-02-16T08:02:32;23.20;;;11.37;;
12445;SDS011;6287;50.984;7.022;2023-02-16T08:05:04;19.97;;;9.60;;
12445;SDS011;6287;50.984;7.022;2023-02-16T08:07:33;18.97;;;10.10;;
12445;SDS011;6287;50.984;7.022;2023-02-16T08:10:00;19.73;;;10.50;;
12445;SDS011;6287;50.984;7.022;2023-02-16T08:12:29;18.93;;;10.60;;
12445;SDS011;6287;50.984;7.022;2023-02-16T08:15:00;18.20;;;10.07;;
12445;SDS011;6287;50.984;7.022;2023-02-16T08:17:26;18.63;;;10.20;;
12445;SDS011;6287;50.984;7.022;2023-02-16T08:19:54;19.90;;;9.80;;
12445;SDS011;6287;50.984;7.022;2023-02-16T08:22:22;20.10;;;9.90;;
12445;SDS011;6287;50.984;7.022;2023-02-16T08:24:48;16.80;;;10.20;;
12445;SDS011;6287;50.984;7.022;2023-02-16T08:27:17;23.43;;;11.20;;
12445;SDS011;6287;50.984;7.022;2023-02-16T08:29:46;19.07;;;9.93;;
12445;SDS011;6287;50.984;7.022;2023-02-16T08:32:12;19.23;;;10.03;;
12445;SDS011;6287;50.984;7.022;2023-02-16T08:34:42;19.50;;;10.53;;
12445;SDS011;6287;50.984;7.022;2023-02-16T08:37:11;19.63;;;10.53;;
12445;SDS011;6287;50.984;7.022;2023-02-16T08:39:39;21.03;;;11.67;;
12445;SDS011;6287;50.984;7.022;2023-02-16T08:42:05;20.87;;;10.43;;
12445;SDS011;6287;50.984;7.022;2023-02-16T08:44:33;22.03;;;10.30;;
12445;SDS011;6287;50.984;7.022;2023-02-16T08:47:01;18.17;;;10.47;;
12445;SDS011;6287;50.984;7.022;2023-02-16T08:49:29;20.80;;;10.73;;
12445;SDS011;6287;50.984;7.022;2023-02-16T08:51:56;19.80;;;9.90;;
12445;SDS011;6287;50.984;7.022;2023-02-16T08:54:26;19.73;;;10.53;;
12445;SDS011;6287;50.984;7.022;2023-02-16T08:56:54;17.27;;;10.63;;
12445;SDS011;6287;50.984;7.022;2023-02-16T08:59:23;19.47;;;10.67;;
12445;SDS011;6287;50.984;7.022;2023-02-16T09:01:54;19.73;;;10.07;;
12445;SDS011;6287;50.984;7.022;2023-02-16T09:04:22;21.47;;;10.90;;
12445;SDS011;6287;50.984;7.022;2023-02-16T09:06:51;19.30;;;10.83;;
12445;SDS011;6287;50.984;7.022;2023-02-16T09:09:19;18.37;;;10.13;;
12445;SDS011;6287;50.984;7.022;2023-02-16T09:11:46;19.63;;;10.33;;
12445;SDS011;6287;50.984;7.022;2023-02-16T09:14:17;17.37;;;10.53;;
12445;SDS011;6287;50.984;7.022;2023-02-16T09:16:43;22.00;;;11.40;;
12445;SDS011;6287;50.984;7.022;2023-02-16T09:19:12;21.37;;;10.97;;
12445;SDS011;6287;50.984;7.022;2023-02-16T09:21:39;21.03;;;10.87;;
12445;SDS011;6287;50.984;7.022;2023-02-16T09:24:06;16.90;;;10.07;;
12445;SDS011;6287;50.984;7.022;2023-02-16T09:26:36;20.20;;;10.73;;
12445;SDS011;6287;50.984;7.022;2023-02-16T09:29:05;20.13;;;10.63;;
12445;SDS011;6287;50.984;7.022;2023-02-16T09:31:31;17.87;;;10.93;;
12445;SDS011;6287;50.984;7.022;2023-02-16T09:34:15;19.73;;;10.53;;
12445;SDS011;6287;50.984;7.022;2023-02-16T09:36:43;17.87;;;10.90;;
12445;SDS011;6287;50.984;7.022;2023-02-16T09:39:12;18.07;;;10.47;;
12445;SDS011;6287;50.984;7.022;2023-02-16T09:44:52;19.87;;;11.40;;
12445;SDS011;6287;50.984;7.022;2023-02-16T09:47:41;17.27;;;10.07;;
12445;SDS011;6287;50.984;7.022;2023-02-16T09:50:16;19.57;;;10.37;;
12445;SDS011;6287;50.984;7.022;2023-02-16T09:52:52;20.27;;;11.17;;
12445;SDS011;6287;50.984;7.022;2023-02-16T09:55:20;16.10;;;10.00;;
12445;SDS011;6287;50.984;7.022;2023-02-16T10:08:36;21.13;;;9.73;;
12445;SDS011;6287;50.984;7.022;2023-02-16T10:11:15;19.00;;;10.10;;
12445;SDS011;6287;50.984;7.022;2023-02-16T10:14:07;16.13;;;10.33;;
12445;SDS011;6287;50.984;7.022;2023-02-16T10:16:40;17.00;;;10.23;;
12445;SDS011;6287;50.984;7.022;2023-02-16T10:19:18;14.77;;;9.80;;
12445;SDS011;6287;50.984;7.022;2023-02-16T10:21:48;21.33;;;10.93;;
12445;SDS011;6287;50.984;7.022;2023-02-16T10:24:20;20.07;;;10.50;;
12445;SDS011;6287;50.984;7.022;2023-02-16T10:26:58;18.27;;;10.53;;
12445;SDS011;6287;50.984;7.022;2023-02-16T10:29:31;18.63;;;9.40;;
12445;SDS011;6287;50.984;7.022;2023-02-16T10:37:14;20.17;;;11.00;;
12445;SDS011;6287;50.984;7.022;2023-02-16T10:42:36;17.47;;;10.77;;
12445;SDS011;6287;50.984;7.022;2023-02-16T10:45:26;16.53;;;9.93;;
12445;SDS011;6287;50.984;7.022;2023-02-16T10:48:07;17.20;;;10.07;;
12445;SDS011;6287;50.984;7.022;2023-02-16T10:50:45;21.33;;;10.90;;
12445;SDS011;6287;50.984;7.022;2023-02-16T10:53:44;16.67;;;10.43;;
12445;SDS011;6287;50.984;7.022;2023-02-16T10:58:50;19.03;;;11.17;;
12445;SDS011;6287;50.984;7.022;2023-02-16T11:03:48;18.70;;;10.70;;
12445;SDS011;6287;50.984;7.022;2023-02-16T11:06:16;18.63;;;10.70;;
12445;SDS011;6287;50.984;7.022;2023-02-16T11:11:15;18.40;;;10.83;;
12445;SDS011;6287;50.984;7.022;2023-02-16T11:13:48;20.13;;;11.57;;
12445;SDS011;6287;50.984;7.022;2023-02-16T11:16:20;16.90;;;10.30;;
12445;SDS011;6287;50.984;7.022;2023-02-16T11:19:17;17.27;;;10.10;;
12445;SDS011;6287;50.984;7.022;2023-02-16T11:24:25;18.93;;;10.27;;
12445;SDS011;6287;50.984;7.022;2023-02-16T11:27:00;14.40;;;8.97;;
12445;SDS011;6287;50.984;7.022;2023-02-16T11:29:26;16.93;;;10.07;;
12445;SDS011;6287;50.984;7.022;2023-02-16T11:31:52;15.00;;;9.97;;
12445;SDS011;6287;50.984;7.022;2023-02-16T11:37:02;18.23;;;10.40;;
12445;SDS011;6287;50.984;7.022;2023-02-16T11:39:38;18.20;;;10.73;;
12445;SDS011;6287;50.984;7.022;2023-02-16T11:42:21;13.80;;;9.20;;
12445;SDS011;6287;50.984;7.022;2023-02-16T11:45:05;17.17;;;10.00;;
12445;SDS011;6287;50.984;7.022;2023-02-16T11:47:39;16.73;;;9.97;;
12445;SDS011;6287;50.984;7.022;2023-02-16T11:50:19;17.73;;;10.37;;
12445;SDS011;6287;50.984;7.022;2023-02-16T11:52:53;17.60;;;9.57;;
12445;SDS011;6287;50.984;7.022;2023-02-16T11:57:51;17.40;;;10.00;;
12445;SDS011;6287;50.984;7.022;2023-02-16T12:00:22;18.77;;;10.57;;
12445;SDS011;6287;50.984;7.022;2023-02-16T12:10:54;16.80;;;9.97;;
12445;SDS011;6287;50.984;7.022;2023-02-16T12:17:02;17.80;;;10.77;;
12445;SDS011;6287;50.984;7.022;2023-02-16T12:19:23;17.27;;;9.90;;
12445;SDS011;6287;50.984;7.022;2023-02-16T12:27:17;17.63;;;10.07;;
12445;SDS011;6287;50.984;7.022;2023-02-16T12:33:26;16.87;;;9.63;;
12445;SDS011;6287;50.984;7.022;2023-02-16T12:44:43;14.87;;;8.93;;
12445;SDS011;6287;50.984;7.022;2023-02-16T12:47:18;15.70;;;9.27;;
12445;SDS011;6287;50.984;7.022;2023-02-16T12:50:21;14.10;;;9.27;;
12445;SDS011;6287;50.984;7.022;2023-02-16T12:56:01;15.97;;;9.07;;
12445;SDS011;6287;50.984;7.022;2023-02-16T12:58:32;16.80;;;9.73;;
12445;SDS011;6287;50.984;7.022;2023-02-16T13:01:03;17.67;;;9.73;;
12445;SDS011;6287;50.984;7.022;2023-02-16T13:14:41;17.90;;;9.67;;
12445;SDS011;6287;50.984;7.022;2023-02-16T13:17:17;18.70;;;10.70;;
12445;SDS011;6287;50.984;7.022;2023-02-16T13:19:49;18.00;;;9.80;;
12445;SDS011;6287;50.984;7.022;2023-02-16T13:22:22;16.80;;;10.53;;
12445;SDS011;6287;50.984;7.022;2023-02-16T13:24:58;15.63;;;10.03;;
12445;SDS011;6287;50.984;7.022;2023-02-16T13:28:14;16.93;;;10.20;;
12445;SDS011;6287;50.984;7.022;2023-02-16T13:31:09;18.27;;;10.10;;
12445;SDS011;6287;50.984;7.022;2023-02-16T13:39:10;18.10;;;10.00;;
12445;SDS011;6287;50.984;7.022;2023-02-16T13:44:17;17.70;;;10.57;;
12445;SDS011;6287;50.984;7.022;2023-02-16T13:46:45;15.90;;;10.33;;
12445;SDS011;6287;50.984;7.022;2023-02-16T13:49:36;18.07;;;10.90;;
12445;SDS011;6287;50.984;7.022;2023-02-16T13:52:07;17.70;;;10.27;;
12445;SDS011;6287;50.984;7.022;2023-02-16T13:54:50;18.67;;;10.70;;
12445;SDS011;6287;50.984;7.022;2023-02-16T13:57:35;17.40;;;9.97;;
12445;SDS011;6287;50.984;7.022;2023-02-16T14:00:33;19.67;;;10.77;;
12445;SDS011;6287;50.984;7.022;2023-02-16T14:05:48;18.37;;;10.70;;
12445;SDS011;6287;50.984;7.022;2023-02-16T14:08:22;17.87;;;10.57;;
12445;SDS011;6287;50.984;7.022;2023-02-16T14:21:15;16.63;;;9.63;;
12445;SDS011;6287;50.984;7.022;2023-02-16T14:24:02;16.57;;;10.60;;
12445;SDS011;6287;50.984;7.022;2023-02-16T14:26:49;14.17;;;8.60;;
12445;SDS011;6287;50.984;7.022;2023-02-16T14:29:52;17.30;;;9.80;;
12445;SDS011;6287;50.984;7.022;2023-02-16T14:32:24;16.63;;;9.10;;
12445;SDS011;6287;50.984;7.022;2023-02-16T14:37:43;14.87;;;8.73;;
12445;SDS011;6287;50.984;7.022;2023-02-16T14:43:11;18.77;;;9.53;;
12445;SDS011;6287;50.984;7.022;2023-02-16T14:59:56;13.17;;;8.67;;
12445;SDS011;6287;50.984;7.022;2023-02-16T15:02:34;14.77;;;9.30;;
12445;SDS011;6287;50.984;7.022;2023-02-16T15:05:19;13.37;;;8.53;;
12445;SDS011;6287;50.984;7.022;2023-02-16T15:08:00;14.70;;;8.77;;
12445;SDS011;6287;50.984;7.022;2023-02-16T15:10:37;13.83;;;8.70;;
12445;SDS011;6287;50.984;7.022;2023-02-16T15:13:03;12.80;;;9.03;;
12445;SDS011;6287;50.984;7.022;2023-02-16T15:15:43;13.13;;;8.57;;
12445;SDS011;6287;50.984;7.022;2023-02-16T15:18:20;12.50;;;8.53;;
12445;SDS011;6287;50.984;7.022;2023-02-16T15:20:51;13.63;;;8.27;;
12445;SDS011;6287;50.984;7.022;2023-02-16T15:23:22;11.40;;;8.13;;
12445;SDS011;6287;50.984;7.022;2023-02-16T15:28:24;15.67;;;9.00;;
12445;SDS011;6287;50.984;7.022;2023-02-16T15:36:03;13.83;;;8.80;;
12445;SDS011;6287;50.984;7.022;2023-02-16T15:38:41;13.90;;;9.20;;
12445;SDS011;6287;50.984;7.022;2023-02-16T15:41:35;15.20;;;8.87;;
12445;SDS011;6287;50.984;7.022;2023-02-16T15:44:13;13.53;;;8.83;;
12445;SDS011;6287;50.984;7.022;2023-02-16T15:49:32;15.20;;;9.17;;
12445;SDS011;6287;50.984;7.022;2023-02-16T15:52:04;13.27;;;8.40;;
12445;SDS011;6287;50.984;7.022;2023-02-16T15:54:55;11.73;;;8.27;;
12445;SDS011;6287;50.984;7.022;2023-02-16T15:57:28;12.10;;;7.73;;
12445;SDS011;6287;50.984;7.022;2023-02-16T16:00:20;13.07;;;8.60;;
12445;SDS011;6287;50.984;7.022;2023-02-16T16:02:48;14.40;;;8.63;;
12445;SDS011;6287;50.984;7.022;2023-02-16T16:05:22;13.90;;;8.63;;
12445;SDS011;6287;50.984;7.022;2023-02-16T16:07:54;11.17;;;7.93;;
12445;SDS011;6287;50.984;7.022;2023-02-16T16:10:25;13.80;;;8.47;;
12445;SDS011;6287;50.984;7.022;2023-02-16T16:12:57;14.87;;;8.67;;
12445;SDS011;6287;50.984;7.022;2023-02-16T16:15:35;15.97;;;7.90;;
12445;SDS011;6287;50.984;7.022;2023-02-16T16:18:17;12.80;;;7.97;;
12445;SDS011;6287;50.984;7.022;2023-02-16T16:24:02;13.57;;;8.17;;
12445;SDS011;6287;50.984;7.022;2023-02-16T16:27:06;13.97;;;8.20;;
12445;SDS011;6287;50.984;7.022;2023-02-16T16:29:47;16.63;;;8.50;;
12445;SDS011;6287;50.984;7.022;2023-02-16T16:32:25;12.60;;;8.10;;
12445;SDS011;6287;50.984;7.022;2023-02-16T16:34:54;13.10;;;7.47;;
12445;SDS011;6287;50.984;7.022;2023-02-16T16:37:24;15.43;;;8.47;;
12445;SDS011;6287;50.984;7.022;2023-02-16T16:40:19;13.10;;;8.10;;
12445;SDS011;6287;50.984;7.022;2023-02-16T16:50:49;13.00;;;8.00;;
12445;SDS011;6287;50.984;7.022;2023-02-16T16:56:12;13.87;;;7.87;;
12445;SDS011;6287;50.984;7.022;2023-02-16T16:58:40;11.43;;;8.13;;
12445;SDS011;6287;50.984;7.022;2023-02-16T17:01:09;11.43;;;7.53;;
12445;SDS011;6287;50.984;7.022;2023-02-16T17:03:36;14.33;;;8.27;;
12445;SDS011;6287;50.984;7.022;2023-02-16T17:06:02;12.50;;;8.03;;
12445;SDS011;6287;50.984;7.022;2023-02-16T17:08:31;13.23;;;7.90;;
12445;SDS011;6287;50.984;7.022;2023-02-16T17:10:56;11.37;;;7.20;;
12445;SDS011;6287;50.984;7.022;2023-02-16T17:13:27;12.90;;;7.53;;
12445;SDS011;6287;50.984;7.022;2023-02-16T17:18:21;13.93;;;7.53;;
12445;SDS011;6287;50.984;7.022;2023-02-16T17:20:47;11.43;;;6.70;;
12445;SDS011;6287;50.984;7.022;2023-02-16T17:23:15;11.50;;;7.40;;
12445;SDS011;6287;50.984;7.022;2023-02-16T17:25:44;12.03;;;7.00;;
12445;SDS011;6287;50.984;7.022;2023-02-16T17:28:10;11.70;;;6.90;;
12445;SDS011;6287;50.984;7.022;2023-02-16T17:30:37;13.03;;;7.30;;
12445;SDS011;6287;50.984;7.022;2023-02-16T17:33:03;17.07;;;7.37;;
12445;SDS011;6287;50.984;7.022;2023-02-16T17:35:33;11.50;;;6.07;;
12445;SDS011;6287;50.984;7.022;2023-02-16T17:38:17;11.70;;;6.93;;
12445;SDS011;6287;50.984;7.022;2023-02-16T17:40:47;13.80;;;6.90;;
12445;SDS011;6287;50.984;7.022;2023-02-16T17:43:17;10.37;;;7.00;;
12445;SDS011;6287;50.984;7.022;2023-02-16T17:45:43;12.70;;;6.73;;
12445;SDS011;6287;50.984;7.022;2023-02-16T17:48:11;11.63;;;6.63;;
12445;SDS011;6287;50.984;7.022;2023-02-16T17:50:42;11.80;;;7.13;;
12445;SDS011;6287;50.984;7.022;2023-02-16T17:53:16;9.87;;;6.40;;
12445;SDS011;6287;50.984;7.022;2023-02-16T17:55:43;10.67;;;6.33;;
12445;SDS011;6287;50.984;7.022;2023-02-16T17:58:12;11.10;;;6.83;;
12445;SDS011;6287;50.984;7.022;2023-02-16T18:00:39;11.27;;;5.73;;
12445;SDS011;6287;50.984;7.022;2023-02-16T18:03:05;9.67;;;6.63;;
12445;SDS011;6287;50.984;7.022;2023-02-16T18:05:31;10.40;;;6.70;;
12445;SDS011;6287;50.984;7.022;2023-02-16T18:07:57;11.07;;;5.77;;
12445;SDS011;6287;50.984;7.022;2023-02-16T18:13:13;9.60;;;5.73;;
12445;SDS011;6287;50.984;7.022;2023-02-16T18:15:40;12.43;;;5.97;;
12445;SDS011;6287;50.984;7.022;2023-02-16T18:18:10;10.57;;;5.73;;